| Date | Time | Temp. (oF) | Dew Point (oF) | Rel. Hum. (%) | Press. (in.) | Wind Dir. | Wind Speed (mph) | Hourly Rainfall (in.) |
|
|---|---|---|---|---|---|---|---|---|---|
| 1 | 05/17 | 00:00 | 47 | 46 | 100 | 30.36 | ESE | 8 | 0.00 |
| 2 | 05/16 | 23:00 | 47 | 46 | 100 | 30.35 | ESE | 4 | 0.00 |
| 3 | 05/16 | 22:00 | 48 | 48 | 100 | 30.35 | NNE | 5 | 0.01 |
| 4 | 05/16 | 21:00 | 48 | 48 | 100 | 30.33 | ENE | 10 | 0.00 |
| 5 | 05/16 | 20:00 | 48 | 48 | 100 | 30.32 | E | 4 | 0.00 |
| 6 | 05/16 | 19:00 | 49 | 49 | 100 | 30.31 | ENE | 5 | 0.01 |
| 7 | 05/16 | 18:00 | 49 | 49 | 100 | 30.31 | E | 5 | 0.02 |
| 8 | 05/16 | 17:00 | 50 | 50 | 100 | 30.30 | NE | 4 | 0.01 |
| 9 | 05/16 | 16:00 | 51 | 50 | 100 | 30.28 | NE | 4 | 0.03 |
| 10 | 05/16 | 15:00 | 51 | 50 | 98 | 30.27 | NE | 9 | 0.01 |
| 11 | 05/16 | 14:00 | 53 | 52 | 99 | 30.23 | ESE | 15 | 0.00 |
| 12 | 05/16 | 13:00 | 53 | 53 | 100 | 30.22 | NE | 6 | 0.02 |
| 13 | 05/16 | 12:00 | 52 | 51 | 100 | 30.24 | ENE | 4 | 0.14 |
| 14 | 05/16 | 11:00 | 52 | 51 | 99 | 30.24 | E | 7 | 0.10 |
| 15 | 05/16 | 10:00 | 53 | 52 | 97 | 30.21 | ENE | 4 | 0.01 |
| 16 | 05/16 | 09:00 | 53 | 52 | 98 | 30.20 | ENE | 6 | 0.01 |
| 17 | 05/16 | 08:00 | 53 | 52 | 99 | 30.17 | ESE | 16 | 0.00 |
| 18 | 05/16 | 07:00 | 52 | 50 | 96 | 30.16 | E | 10 | 0.04 |
| 19 | 05/16 | 06:00 | 54 | 50 | 87 | 30.15 | E | 7 | 0.01 |
| 20 | 05/16 | 05:00 | 55 | 48 | 79 | 30.11 | ENE | 8 | 0.00 |
| 21 | 05/16 | 04:00 | 56 | 47 | 73 | 30.11 | ENE | 13 | 0.00 |
| 22 | 05/16 | 03:00 | 56 | 46 | 70 | 30.12 | NE | 15 | 0.00 |
| 23 | 05/16 | 02:00 | 56 | 44 | 66 | 30.12 | ESE | 11 | 0.00 |
| 24 | 05/16 | 01:00 | 56 | 44 | 65 | 30.12 | E | 9 | 0.00 |